Decoded Metar for KJYL (SYLVANIA in GA, USA) (IATA:JYL) | Meteo·Mobile Aviation Weather
aviador You're here:

KJYL Decoded Metar

SYLVANIA in GA, USA
Report Time2019-11-18 03:55:00
UTC Time2019-11-18 04:15:34
Flight Rules vfr VFR
Wind090° at 03 kt
W.Decomp.*RWY 05: 2.2 kt HW 2.1 kt RCW
RWY 15: 1.7 kt HW 2.5 kt LCW
Visibility9999 m
Phenomena:N/A
Clouds:Broken 090 Hf
Expected CloudBase > 400 ft AGL from Temp-Dew spread
Ceiling9,000 ft
Temp10°C (ISA -5)
Dew Point09°C (94% RH)
AAT8.7°C
QNH1013 hPa
Density Alt-210 ft
Elevation187 ft
Report Wrong Elevation
Raw Report
KJYL 180355Z AUTO 09003KT 10SM BKN090 10/09 A2991 RMK AO2
T01020086=

Extra information for KJYL:More info

Metar Taf Metar & Taf Last 4 Metars F.Rules Stats Wind Profile Meteogram Temp Stats Airport Information Weather charts Add Link Nearby VenuesMetar ALERT Operation Metar Decoded Social comments

AIRNAV info for KJYL